createdAt,value
2023-05-01T00:00:23.486Z,0.00
2023-05-01T00:01:23.461Z,0.00
2023-05-01T00:02:23.495Z,0.00
2023-05-01T00:03:23.514Z,0.00
2023-05-01T00:04:23.436Z,0.00
2023-05-01T00:05:23.351Z,0.00
2023-05-01T00:06:23.402Z,0.00
2023-05-01T00:07:23.293Z,0.00
2023-05-01T00:08:23.298Z,0.00
2023-05-01T00:09:23.254Z,0.00
2023-05-01T00:10:23.219Z,0.00
2023-05-01T00:11:23.224Z,0.00
2023-05-01T00:12:23.164Z,0.00
2023-05-01T00:13:23.135Z,0.00
2023-05-01T00:14:23.119Z,0.00
2023-05-01T00:15:23.083Z,0.00
2023-05-01T00:16:23.087Z,0.00
2023-05-01T00:17:23.038Z,0.00
2023-05-01T00:18:23.012Z,0.00
2023-05-01T00:19:22.991Z,0.00
2023-05-01T00:20:22.953Z,0.00
2023-05-01T00:21:22.924Z,0.00
2023-05-01T00:22:22.901Z,0.00
2023-05-01T00:23:22.876Z,0.00
2023-05-01T00:24:22.848Z,0.00
2023-05-01T00:25:22.822Z,0.00
2023-05-01T00:26:22.798Z,0.00
2023-05-01T00:27:22.791Z,0.00
2023-05-01T00:28:22.745Z,0.00
2023-05-01T00:29:22.721Z,0.00
2023-05-01T00:30:22.693Z,0.00
2023-05-01T00:31:22.719Z,0.00
2023-05-01T00:32:22.652Z,0.00
2023-05-01T00:33:22.619Z,0.00
2023-05-01T00:34:22.587Z,0.00
2023-05-01T00:35:22.566Z,0.00
2023-05-01T00:36:22.540Z,0.00
2023-05-01T00:37:22.525Z,0.00
2023-05-01T00:38:22.500Z,0.00
2023-05-01T00:39:22.463Z,0.00
2023-05-01T00:40:22.441Z,0.00
2023-05-01T00:41:22.413Z,0.00
2023-05-01T00:42:22.393Z,0.00
2023-05-01T00:43:22.376Z,0.00
2023-05-01T00:44:22.334Z,0.00
2023-05-01T00:45:22.306Z,0.00
2023-05-01T00:46:22.317Z,0.00
2023-05-01T00:47:22.277Z,0.00
2023-05-01T00:48:22.254Z,0.00
2023-05-01T00:49:22.202Z,0.00
2023-05-01T00:50:22.186Z,0.00
2023-05-01T00:51:22.152Z,0.00
2023-05-01T00:52:22.123Z,0.00
2023-05-01T00:53:22.097Z,0.00
2023-05-01T00:54:22.083Z,0.00
2023-05-01T00:55:22.053Z,0.00
2023-05-01T00:56:22.027Z,0.00
2023-05-01T00:57:22.013Z,0.00
2023-05-01T00:58:21.967Z,0.00
2023-05-01T00:59:21.964Z,0.00
2023-05-01T01:00:21.915Z,0.00
2023-05-01T01:01:21.943Z,0.00
2023-05-01T01:02:21.917Z,0.00
2023-05-01T01:03:21.859Z,0.00
2023-05-01T01:04:21.849Z,0.00
2023-05-01T01:05:21.815Z,0.00
2023-05-01T01:06:21.796Z,0.00
2023-05-01T01:07:21.743Z,0.00
2023-05-01T01:08:21.707Z,0.00
2023-05-01T01:09:21.717Z,0.00
2023-05-01T01:10:21.680Z,0.00
2023-05-01T01:11:21.706Z,0.00
2023-05-01T01:12:21.599Z,0.00
2023-05-01T01:13:21.572Z,0.00
2023-05-01T01:14:21.548Z,0.00
2023-05-01T01:15:21.555Z,0.00
2023-05-01T01:16:21.544Z,0.00
2023-05-01T01:17:21.471Z,0.00
2023-05-01T01:18:21.442Z,0.00
2023-05-01T01:19:21.421Z,0.00
2023-05-01T01:20:21.393Z,0.00
2023-05-01T01:21:21.364Z,0.00
2023-05-01T01:22:21.335Z,0.00
2023-05-01T01:23:21.316Z,0.00
2023-05-01T01:24:21.289Z,0.00
2023-05-01T01:25:21.257Z,0.00
2023-05-01T01:26:21.228Z,0.00
2023-05-01T01:27:21.208Z,0.00
2023-05-01T01:28:21.178Z,0.00
2023-05-01T01:29:21.158Z,0.00
2023-05-01T01:30:21.126Z,0.00
2023-05-01T01:31:21.203Z,0.00
2023-05-01T01:32:21.078Z,0.00
2023-05-01T01:33:21.049Z,0.00
2023-05-01T01:34:21.026Z,0.00
2023-05-01T01:35:20.995Z,0.00
2023-05-01T01:36:20.968Z,0.00
2023-05-01T01:37:20.948Z,0.00
2023-05-01T01:38:20.915Z,0.00
2023-05-01T01:39:20.892Z,0.00
2023-05-01T01:40:20.866Z,0.00
2023-05-01T01:41:20.835Z,0.00
2023-05-01T01:42:20.834Z,0.00
2023-05-01T01:43:20.785Z,0.00
2023-05-01T01:44:20.776Z,0.00
2023-05-01T01:45:20.733Z,0.00
2023-05-01T01:46:20.725Z,0.00
2023-05-01T01:47:20.701Z,0.00
2023-05-01T01:48:20.655Z,0.00
2023-05-01T01:49:21.035Z,0.00
2023-05-01T01:50:20.602Z,0.00
2023-05-01T01:51:20.574Z,0.00
2023-05-01T01:52:20.547Z,0.00
2023-05-01T01:53:20.525Z,0.00
2023-05-01T01:54:20.492Z,0.00
2023-05-01T01:55:20.470Z,0.00
2023-05-01T01:56:20.443Z,0.00
2023-05-01T01:57:20.412Z,0.00
2023-05-01T01:58:20.407Z,0.00
2023-05-01T01:59:20.366Z,0.00
2023-05-01T02:00:20.338Z,0.00
2023-05-01T02:01:20.339Z,0.00
2023-05-01T02:02:20.280Z,0.00
2023-05-01T02:03:20.498Z,0.00
2023-05-01T02:04:20.271Z,0.00
2023-05-01T02:05:20.200Z,0.00
2023-05-01T02:06:20.250Z,0.00
2023-05-01T02:07:20.145Z,0.00
2023-05-01T02:08:20.140Z,0.00
2023-05-01T02:09:20.094Z,0.00
2023-05-01T02:10:20.072Z,0.00
2023-05-01T02:11:20.043Z,0.00
2023-05-01T02:12:20.013Z,0.00
2023-05-01T02:13:19.991Z,0.00
2023-05-01T02:14:19.979Z,0.00
2023-05-01T02:15:19.939Z,0.00
2023-05-01T02:16:19.996Z,0.00
2023-05-01T02:17:19.914Z,0.00
2023-05-01T02:18:19.947Z,0.00
2023-05-01T02:19:19.851Z,0.00
2023-05-01T02:20:19.799Z,0.00
2023-05-01T02:21:19.773Z,0.00
2023-05-01T02:22:19.748Z,0.00
2023-05-01T02:23:19.730Z,0.00
2023-05-01T02:24:19.695Z,0.00
2023-05-01T02:25:19.667Z,0.00
2023-05-01T02:26:19.644Z,0.00
2023-05-01T02:27:19.613Z,0.00
2023-05-01T02:28:19.588Z,0.00
2023-05-01T02:29:19.559Z,0.00
2023-05-01T02:30:19.535Z,0.00
2023-05-01T02:31:19.564Z,0.00
2023-05-01T02:32:19.491Z,0.00
2023-05-01T02:33:19.450Z,0.00
2023-05-01T02:34:19.425Z,0.00
2023-05-01T02:35:19.538Z,0.00
2023-05-01T02:36:19.372Z,0.00
2023-05-01T02:37:19.350Z,0.00
2023-05-01T02:38:19.336Z,0.00
2023-05-01T02:39:19.292Z,0.00
2023-05-01T02:40:19.266Z,0.00
2023-05-01T02:41:19.236Z,0.00
2023-05-01T02:42:19.209Z,0.00
2023-05-01T02:43:19.182Z,0.00
2023-05-01T02:44:19.158Z,0.00
2023-05-01T02:45:19.147Z,0.00
2023-05-01T02:46:19.258Z,0.00
2023-05-01T02:47:19.126Z,0.00
2023-05-01T02:48:19.052Z,0.00
2023-05-01T02:49:19.021Z,0.00
2023-05-01T02:50:19.000Z,0.00
2023-05-01T02:51:18.999Z,0.00
2023-05-01T02:52:18.940Z,0.00
2023-05-01T02:53:18.924Z,0.00
2023-05-01T02:54:18.885Z,0.00
2023-05-01T02:55:18.878Z,0.00
2023-05-01T02:56:18.831Z,0.00
2023-05-01T02:57:18.803Z,0.00
2023-05-01T02:58:18.838Z,0.00
2023-05-01T02:59:18.751Z,0.00
2023-05-01T03:00:18.741Z,0.00
2023-05-01T03:01:18.721Z,0.00
2023-05-01T03:02:18.668Z,0.00
2023-05-01T03:03:18.674Z,0.00
2023-05-01T03:04:18.687Z,0.00
2023-05-01T03:05:18.587Z,0.00
2023-05-01T03:06:18.588Z,0.00
2023-05-01T03:07:18.551Z,0.00
2023-05-01T03:08:18.503Z,0.00
2023-05-01T03:09:18.484Z,0.00
2023-05-01T03:10:18.453Z,0.00
2023-05-01T03:11:18.425Z,0.00
2023-05-01T03:12:18.400Z,0.00
2023-05-01T03:13:18.373Z,0.00
2023-05-01T03:14:18.342Z,0.00
2023-05-01T03:15:18.314Z,0.00
2023-05-01T03:16:18.345Z,0.00
2023-05-01T03:17:18.272Z,0.00
2023-05-01T03:18:18.235Z,0.00
2023-05-01T03:19:18.208Z,0.00
2023-05-01T03:20:18.189Z,0.00
2023-05-01T03:21:18.153Z,0.00
2023-05-01T03:22:18.122Z,0.00
2023-05-01T03:23:18.211Z,0.00
2023-05-01T03:24:18.070Z,0.00
2023-05-01T03:25:18.041Z,0.00
2023-05-01T03:26:18.016Z,0.00
2023-05-01T03:27:17.988Z,0.00
2023-05-01T03:28:17.959Z,0.00
2023-05-01T03:29:17.932Z,0.00
2023-05-01T03:30:17.915Z,0.00
2023-05-01T03:31:17.879Z,0.00
2023-05-01T03:32:17.993Z,0.00
2023-05-01T03:33:17.828Z,0.00
2023-05-01T03:34:17.791Z,0.00
2023-05-01T03:35:17.784Z,0.00
2023-05-01T03:36:17.748Z,0.00
2023-05-01T03:37:17.712Z,0.00
2023-05-01T03:38:17.691Z,0.00
2023-05-01T03:39:17.681Z,0.00
2023-05-01T03:40:17.631Z,0.00
2023-05-01T03:41:17.606Z,0.00
2023-05-01T03:42:17.577Z,0.00
2023-05-01T03:43:17.549Z,0.00
2023-05-01T03:44:17.522Z,0.00
2023-05-01T03:45:17.496Z,0.00
2023-05-01T03:46:17.485Z,0.00
2023-05-01T03:47:17.441Z,0.00
2023-05-01T03:48:17.414Z,0.00
2023-05-01T03:49:17.383Z,0.00
2023-05-01T03:50:17.357Z,0.00
2023-05-01T03:51:17.329Z,0.00
2023-05-01T03:52:17.304Z,0.00
2023-05-01T03:53:17.282Z,0.00
2023-05-01T03:54:17.253Z,0.00
2023-05-01T03:55:17.249Z,0.00
2023-05-01T03:56:17.203Z,0.00
2023-05-01T03:57:17.170Z,0.00
2023-05-01T03:58:17.145Z,0.00
2023-05-01T03:59:17.114Z,0.00
2023-05-01T04:00:17.090Z,0.00
2023-05-01T04:01:17.061Z,0.00
2023-05-01T04:02:17.048Z,0.00
2023-05-01T04:03:17.082Z,0.00
2023-05-01T04:04:17.018Z,0.00
2023-05-01T04:05:16.952Z,0.00
2023-05-01T04:06:16.948Z,0.00
2023-05-01T04:07:16.904Z,0.00
2023-05-01T04:08:16.887Z,0.00
2023-05-01T04:09:16.845Z,0.00
2023-05-01T04:10:16.826Z,0.00
2023-05-01T04:11:16.817Z,0.00
2023-05-01T04:12:16.765Z,0.00
2023-05-01T04:13:16.736Z,0.00
2023-05-01T04:14:16.710Z,0.00
2023-05-01T04:15:16.684Z,0.00
2023-05-01T04:16:16.673Z,0.00
2023-05-01T04:17:16.631Z,0.00
2023-05-01T04:18:16.637Z,0.00
2023-05-01T04:19:16.586Z,0.00
2023-05-01T04:20:16.553Z,0.00
2023-05-01T04:21:16.521Z,0.00
2023-05-01T04:22:16.493Z,0.00
2023-05-01T04:23:16.470Z,5.63
2023-05-01T04:24:16.443Z,5.63
2023-05-01T04:25:16.412Z,5.63
2023-05-01T04:26:16.399Z,5.63
2023-05-01T04:27:16.376Z,5.63
2023-05-01T04:28:16.328Z,5.63
2023-05-01T04:29:16.308Z,5.63
2023-05-01T04:30:16.277Z,5.63
2023-05-01T04:31:16.266Z,5.63
2023-05-01T04:32:16.222Z,5.63
2023-05-01T04:33:16.195Z,5.63
2023-05-01T04:34:16.174Z,5.63
2023-05-01T04:35:16.145Z,5.63
2023-05-01T04:36:16.123Z,5.63
2023-05-01T04:37:16.085Z,5.63
2023-05-01T04:38:16.065Z,5.63
2023-05-01T04:39:16.031Z,5.63
2023-05-01T04:40:16.033Z,5.63
2023-05-01T04:41:15.991Z,5.63
2023-05-01T04:42:15.952Z,5.63
2023-05-01T04:43:15.951Z,5.63
2023-05-01T04:44:15.928Z,11.25
2023-05-01T04:45:15.880Z,11.25
2023-05-01T04:46:15.915Z,11.25
2023-05-01T04:47:15.822Z,11.25
2023-05-01T04:48:15.827Z,11.25
2023-05-01T04:49:15.771Z,11.25
2023-05-01T04:50:15.736Z,11.25
2023-05-01T04:51:15.713Z,11.25
2023-05-01T04:52:15.686Z,11.25
2023-05-01T04:53:15.655Z,11.25
2023-05-01T04:54:15.635Z,11.25
2023-05-01T04:55:15.602Z,16.88
2023-05-01T04:56:15.574Z,16.88
2023-05-01T04:57:15.547Z,16.88
2023-05-01T04:58:15.523Z,16.88
2023-05-01T04:59:15.510Z,16.88
2023-05-01T05:00:15.475Z,16.88
2023-05-01T05:01:15.490Z,16.88
2023-05-01T05:02:15.450Z,16.88
2023-05-01T05:03:15.498Z,22.50
2023-05-01T05:04:15.359Z,22.50
2023-05-01T05:05:15.357Z,22.50
2023-05-01T05:06:15.357Z,22.50
2023-05-01T05:07:15.282Z,22.50
2023-05-01T05:08:15.303Z,28.13
2023-05-01T05:09:16.901Z,28.13
2023-05-01T05:10:15.206Z,28.13
2023-05-01T05:11:15.171Z,33.75
2023-05-01T05:12:15.157Z,33.75
2023-05-01T05:13:15.128Z,33.75
2023-05-01T05:14:15.102Z,33.75
2023-05-01T05:15:15.303Z,33.75
2023-05-01T05:16:15.120Z,33.75
2023-05-01T05:17:15.024Z,33.75
2023-05-01T05:18:15.054Z,33.75
2023-05-01T05:19:14.963Z,39.38
2023-05-01T05:20:14.935Z,39.38
2023-05-01T05:21:14.913Z,39.38
2023-05-01T05:22:14.883Z,45.00
2023-05-01T05:23:14.859Z,45.00
2023-05-01T05:24:14.829Z,45.00
2023-05-01T05:25:14.800Z,50.63
2023-05-01T05:26:14.773Z,56.25
2023-05-01T05:27:14.748Z,56.25
2023-05-01T05:28:14.723Z,56.25
2023-05-01T05:29:14.691Z,56.25
2023-05-01T05:30:14.667Z,56.25
2023-05-01T05:31:14.661Z,56.25
2023-05-01T05:32:14.614Z,56.25
2023-05-01T05:33:14.623Z,56.25
2023-05-01T05:34:14.579Z,50.63
2023-05-01T05:35:14.535Z,50.63
2023-05-01T05:36:14.508Z,45.00
2023-05-01T05:37:14.481Z,45.00
2023-05-01T05:38:14.459Z,45.00
2023-05-01T05:39:14.427Z,45.00
2023-05-01T05:40:14.427Z,45.00
2023-05-01T05:41:14.383Z,39.38
2023-05-01T05:42:14.358Z,39.38
2023-05-01T05:43:14.322Z,39.38
2023-05-01T05:44:14.298Z,39.38
2023-05-01T05:45:14.272Z,39.38
2023-05-01T05:46:14.281Z,33.75
2023-05-01T05:47:14.235Z,28.13
2023-05-01T05:48:14.223Z,28.13
2023-05-01T05:49:14.165Z,33.75
2023-05-01T05:50:14.161Z,33.75
2023-05-01T05:51:14.111Z,33.75
2023-05-01T05:52:14.090Z,33.75
2023-05-01T05:53:14.055Z,33.75
2023-05-01T05:54:14.039Z,33.75
2023-05-01T05:55:14.022Z,33.75
2023-05-01T05:56:13.979Z,39.38
2023-05-01T05:57:13.954Z,39.38
2023-05-01T05:58:13.927Z,33.75
2023-05-01T05:59:15.957Z,33.75
2023-05-01T06:00:13.875Z,39.38
2023-05-01T06:01:13.848Z,39.38
2023-05-01T06:02:13.877Z,39.38
2023-05-01T06:03:13.926Z,39.38
2023-05-01T06:04:13.767Z,39.38
2023-05-01T06:05:13.820Z,39.38
2023-05-01T06:06:13.774Z,39.38
2023-05-01T06:07:13.693Z,39.38
2023-05-01T06:08:13.677Z,39.38
2023-05-01T06:09:13.636Z,39.38
2023-05-01T06:10:13.610Z,39.38
2023-05-01T06:11:13.587Z,45.00
2023-05-01T06:12:13.557Z,50.63
2023-05-01T06:13:14.695Z,56.25
2023-05-01T06:14:13.506Z,61.88
2023-05-01T06:15:13.477Z,61.88
2023-05-01T06:16:13.563Z,67.50
2023-05-01T06:17:13.426Z,67.50
2023-05-01T06:18:13.597Z,73.13
2023-05-01T06:19:13.389Z,73.13
2023-05-01T06:20:13.346Z,78.75
2023-05-01T06:21:13.318Z,78.75
2023-05-01T06:22:13.291Z,84.38
2023-05-01T06:23:13.262Z,95.63
2023-05-01T06:24:13.248Z,101.25
2023-05-01T06:25:13.229Z,106.88
2023-05-01T06:26:13.214Z,106.88
2023-05-01T06:27:13.162Z,112.50
2023-05-01T06:28:13.134Z,118.13
2023-05-01T06:29:13.111Z,118.13
2023-05-01T06:30:13.087Z,118.13
2023-05-01T06:31:13.106Z,123.75
2023-05-01T06:32:13.026Z,123.75
2023-05-01T06:33:13.049Z,129.38
2023-05-01T06:34:12.995Z,129.38
2023-05-01T06:35:12.967Z,135.00
2023-05-01T06:36:12.916Z,135.00
2023-05-01T06:37:12.896Z,140.63
2023-05-01T06:38:12.867Z,146.25
2023-05-01T06:39:12.841Z,146.25
2023-05-01T06:40:12.821Z,146.25
2023-05-01T06:41:12.788Z,146.25
2023-05-01T06:42:12.760Z,146.25
2023-05-01T06:43:12.738Z,151.88
2023-05-01T06:44:12.713Z,151.88
2023-05-01T06:45:12.695Z,151.88
2023-05-01T06:46:12.751Z,151.88
2023-05-01T06:47:12.702Z,157.50
2023-05-01T06:48:12.707Z,157.50
2023-05-01T06:49:12.580Z,163.13
2023-05-01T06:50:12.557Z,163.13
2023-05-01T06:51:12.549Z,163.13
2023-05-01T06:52:12.499Z,168.75
2023-05-01T06:53:12.475Z,168.75
2023-05-01T06:54:12.452Z,168.75
2023-05-01T06:55:12.431Z,168.75
2023-05-01T06:56:12.409Z,168.75
2023-05-01T06:57:12.372Z,168.75
2023-05-01T06:58:22.492Z,168.75
2023-05-01T06:59:12.319Z,168.75
2023-05-01T07:00:12.317Z,168.75
2023-05-01T07:01:12.307Z,168.75
2023-05-01T07:02:12.247Z,163.13
2023-05-01T07:03:12.241Z,163.13
2023-05-01T07:04:12.196Z,163.13
2023-05-01T07:05:12.166Z,157.50
2023-05-01T07:06:12.202Z,151.88
2023-05-01T07:07:12.144Z,151.88
2023-05-01T07:08:12.089Z,151.88
2023-05-01T07:09:12.064Z,151.88
2023-05-01T07:10:12.048Z,151.88
2023-05-01T07:11:12.018Z,151.88
2023-05-01T07:12:11.987Z,151.88
2023-05-01T07:13:11.977Z,157.50
2023-05-01T07:14:11.938Z,157.50
2023-05-01T07:15:11.912Z,163.13
2023-05-01T07:16:11.896Z,163.13
2023-05-01T07:17:11.863Z,168.75
2023-05-01T07:18:11.898Z,168.75
2023-05-01T07:19:11.813Z,180.00
2023-05-01T07:20:11.782Z,180.00
2023-05-01T07:21:11.760Z,185.63
2023-05-01T07:22:11.729Z,191.25
2023-05-01T07:23:11.726Z,185.63
2023-05-01T07:24:11.683Z,180.00
2023-05-01T07:25:11.664Z,180.00
2023-05-01T07:26:11.629Z,185.63
2023-05-01T07:27:11.607Z,185.63
2023-05-01T07:28:11.596Z,185.63
2023-05-01T07:29:11.555Z,185.63
2023-05-01T07:30:11.530Z,185.63
2023-05-01T07:31:11.508Z,185.63
2023-05-01T07:32:11.601Z,185.63
2023-05-01T07:33:11.572Z,185.63
2023-05-01T07:34:11.446Z,185.63
2023-05-01T07:35:11.401Z,185.63
2023-05-01T07:36:11.375Z,180.00
2023-05-01T07:37:11.348Z,174.38
2023-05-01T07:38:11.323Z,163.13
2023-05-01T07:39:11.425Z,151.88
2023-05-01T07:40:11.276Z,146.25
2023-05-01T07:41:11.253Z,140.63
2023-05-01T07:42:11.221Z,129.38
2023-05-01T07:43:11.288Z,129.38
2023-05-01T07:44:11.184Z,140.63
2023-05-01T07:45:11.146Z,146.25
2023-05-01T07:46:11.156Z,146.25
2023-05-01T07:47:11.094Z,146.25
2023-05-01T07:48:11.324Z,146.25
2023-05-01T07:49:11.046Z,146.25
2023-05-01T07:50:11.047Z,146.25
2023-05-01T07:51:10.991Z,146.25
2023-05-01T07:52:10.985Z,135.00
2023-05-01T07:53:10.947Z,135.00
2023-05-01T07:54:10.914Z,135.00
2023-05-01T07:55:10.911Z,135.00
2023-05-01T07:56:10.870Z,140.63
2023-05-01T07:57:10.838Z,146.25
2023-05-01T07:58:10.813Z,146.25
2023-05-01T07:59:10.786Z,140.63
2023-05-01T08:00:10.760Z,140.63
2023-05-01T08:01:10.742Z,140.63
2023-05-01T08:02:10.734Z,146.25
2023-05-01T08:03:10.842Z,146.25
2023-05-01T08:04:10.875Z,140.63
2023-05-01T08:05:10.649Z,140.63
2023-05-01T08:06:10.623Z,146.25
2023-05-01T08:07:10.589Z,151.88
2023-05-01T08:08:10.561Z,157.50
2023-05-01T08:09:10.532Z,151.88
2023-05-01T08:10:10.512Z,146.25
2023-05-01T08:11:10.499Z,163.13
2023-05-01T08:12:10.455Z,174.38
2023-05-01T08:13:10.435Z,185.63
2023-05-01T08:14:10.408Z,191.25
2023-05-01T08:15:10.381Z,196.88
2023-05-01T08:16:10.399Z,202.50
2023-05-01T08:17:10.333Z,196.88
2023-05-01T08:18:10.335Z,196.88
2023-05-01T08:19:10.281Z,219.38
2023-05-01T08:20:10.264Z,230.63
2023-05-01T08:21:10.237Z,236.25
2023-05-01T08:22:10.205Z,236.25
2023-05-01T08:23:10.177Z,236.25
2023-05-01T08:24:10.152Z,247.50
2023-05-01T08:25:10.133Z,247.50
2023-05-01T08:26:10.101Z,253.13
2023-05-01T08:27:10.104Z,258.75
2023-05-01T08:28:10.050Z,264.38
2023-05-01T08:29:10.037Z,281.25
2023-05-01T08:30:10.009Z,281.25
2023-05-01T08:31:10.033Z,286.88
2023-05-01T08:32:09.955Z,292.50
2023-05-01T08:33:09.948Z,292.50
2023-05-01T08:34:09.904Z,298.13
2023-05-01T08:35:09.879Z,298.13
2023-05-01T08:36:09.847Z,298.13
2023-05-01T08:37:09.824Z,298.13
2023-05-01T08:38:09.802Z,292.50
2023-05-01T08:39:09.776Z,292.50
2023-05-01T08:40:09.744Z,298.13
2023-05-01T08:41:09.722Z,292.50
2023-05-01T08:42:09.694Z,281.25
2023-05-01T08:43:09.691Z,281.25
2023-05-01T08:44:09.639Z,275.63
2023-05-01T08:45:09.619Z,270.00
2023-05-01T08:46:09.604Z,264.38
2023-05-01T08:47:09.719Z,258.75
2023-05-01T08:48:09.583Z,247.50
2023-05-01T08:49:09.515Z,241.88
2023-05-01T08:50:09.488Z,230.63
2023-05-01T08:51:09.466Z,225.00
2023-05-01T08:52:09.438Z,225.00
2023-05-01T08:53:09.430Z,225.00
2023-05-01T08:54:09.387Z,225.00
2023-05-01T08:55:09.361Z,219.38
2023-05-01T08:56:09.338Z,219.38
2023-05-01T08:57:10.452Z,225.00
2023-05-01T08:58:09.289Z,225.00
2023-05-01T08:59:09.373Z,225.00
2023-05-01T09:00:09.242Z,225.00
2023-05-01T09:01:09.243Z,230.63
2023-05-01T09:02:09.342Z,236.25
2023-05-01T09:03:09.239Z,236.25
2023-05-01T09:04:09.211Z,241.88
2023-05-01T09:05:09.108Z,247.50
2023-05-01T09:06:09.136Z,253.13
2023-05-01T09:07:09.059Z,264.38
2023-05-01T09:08:09.043Z,270.00
2023-05-01T09:09:09.007Z,275.63
2023-05-01T09:10:08.976Z,281.25
2023-05-01T09:11:08.954Z,286.88
2023-05-01T09:12:08.927Z,292.50
2023-05-01T09:13:08.907Z,298.13
2023-05-01T09:14:08.873Z,309.38
2023-05-01T09:15:08.874Z,303.75
2023-05-01T09:16:08.874Z,303.75
2023-05-01T09:17:08.799Z,309.38
2023-05-01T09:18:08.805Z,315.00
2023-05-01T09:19:08.770Z,320.63
2023-05-01T09:20:08.728Z,326.25
2023-05-01T09:21:08.699Z,331.88
2023-05-01T09:22:08.677Z,331.88
2023-05-01T09:23:08.661Z,337.50
2023-05-01T09:24:08.623Z,348.75
2023-05-01T09:25:08.600Z,354.38
2023-05-01T09:26:08.580Z,365.63
2023-05-01T09:27:08.549Z,371.25
2023-05-01T09:28:08.556Z,371.25
2023-05-01T09:29:08.501Z,376.88
2023-05-01T09:30:08.471Z,376.88
2023-05-01T09:31:08.479Z,382.50
2023-05-01T09:32:08.516Z,388.13
2023-05-01T09:33:08.454Z,399.38
2023-05-01T09:34:08.380Z,399.38
2023-05-01T09:35:08.348Z,405.00
2023-05-01T09:36:08.324Z,410.63
2023-05-01T09:37:08.307Z,399.38
2023-05-01T09:38:08.274Z,399.38
2023-05-01T09:39:08.260Z,393.75
2023-05-01T09:40:08.229Z,388.13
2023-05-01T09:41:08.201Z,382.50
2023-05-01T09:42:08.180Z,382.50
2023-05-01T09:43:09.467Z,376.88
2023-05-01T09:44:08.127Z,382.50
2023-05-01T09:45:08.100Z,393.75
2023-05-01T09:46:08.108Z,393.75
2023-05-01T09:47:08.095Z,393.75
2023-05-01T09:48:08.055Z,405.00
2023-05-01T09:49:08.012Z,405.00
2023-05-01T09:50:07.978Z,410.63
2023-05-01T09:51:07.959Z,421.88
2023-05-01T09:52:07.932Z,438.75
2023-05-01T09:53:07.914Z,450.00
2023-05-01T09:54:07.884Z,450.00
2023-05-01T09:55:07.859Z,466.88
2023-05-01T09:56:07.871Z,478.13
2023-05-01T09:57:07.812Z,483.75
2023-05-01T09:58:07.786Z,489.38
2023-05-01T09:59:07.763Z,489.38
2023-05-01T10:00:07.754Z,489.38
2023-05-01T10:01:07.728Z,489.38
2023-05-01T10:02:07.726Z,489.38
2023-05-01T10:03:08.710Z,495.00
2023-05-01T10:04:07.705Z,500.63
2023-05-01T10:05:07.629Z,495.00
2023-05-01T10:06:07.631Z,483.75
2023-05-01T10:07:07.574Z,455.63
2023-05-01T10:08:07.550Z,427.50
2023-05-01T10:09:07.530Z,421.88
2023-05-01T10:10:07.506Z,405.00
2023-05-01T10:11:07.474Z,405.00
2023-05-01T10:12:07.452Z,410.63
2023-05-01T10:13:07.436Z,399.38
2023-05-01T10:14:07.412Z,399.38
2023-05-01T10:15:23.209Z,416.25
2023-05-01T10:16:07.368Z,450.00
2023-05-01T10:17:07.350Z,495.00
2023-05-01T10:18:07.329Z,511.88
2023-05-01T10:19:07.310Z,534.38
2023-05-01T10:20:07.269Z,506.25
2023-05-01T10:21:07.242Z,495.00
2023-05-01T10:22:07.224Z,506.25
2023-05-01T10:23:07.194Z,528.75
2023-05-01T10:24:07.187Z,523.13
2023-05-01T10:25:07.146Z,523.13
2023-05-01T10:26:07.214Z,517.50
2023-05-01T10:27:07.146Z,511.88
2023-05-01T10:28:07.076Z,506.25
2023-05-01T10:29:07.074Z,500.63
2023-05-01T10:30:07.024Z,506.25
2023-05-01T10:31:07.055Z,523.13
2023-05-01T10:32:06.987Z,540.00
2023-05-01T10:33:07.010Z,556.88
2023-05-01T10:34:06.930Z,579.38
2023-05-01T10:35:06.926Z,596.25
2023-05-01T10:36:06.911Z,613.13
2023-05-01T10:37:06.861Z,630.00
2023-05-01T10:38:06.834Z,646.88
2023-05-01T10:39:06.807Z,641.25
2023-05-01T10:40:06.794Z,652.50
2023-05-01T10:41:06.764Z,641.25
2023-05-01T10:42:06.755Z,624.38
2023-05-01T10:43:06.747Z,618.75
2023-05-01T10:44:06.692Z,613.13
2023-05-01T10:45:06.718Z,596.25
2023-05-01T10:46:06.673Z,590.63
2023-05-01T10:47:06.624Z,573.75
2023-05-01T10:48:06.663Z,551.25
2023-05-01T10:49:06.578Z,528.75
2023-05-01T10:50:06.552Z,517.50
2023-05-01T10:51:06.550Z,489.38
2023-05-01T10:52:06.503Z,478.13
2023-05-01T10:53:06.495Z,472.50
2023-05-01T10:54:06.458Z,478.13
2023-05-01T10:55:06.437Z,483.75
2023-05-01T10:56:06.439Z,478.13
2023-05-01T10:57:06.389Z,450.00
2023-05-01T10:58:06.371Z,444.38
2023-05-01T10:59:06.341Z,427.50
2023-05-01T11:00:06.330Z,405.00
2023-05-01T11:01:06.293Z,388.13
2023-05-01T11:02:06.324Z,365.63
2023-05-01T11:03:06.336Z,348.75
2023-05-01T11:04:06.223Z,337.50
2023-05-01T11:05:06.266Z,326.25
2023-05-01T11:06:06.342Z,337.50
2023-05-01T11:07:06.265Z,331.88
2023-05-01T11:08:06.129Z,331.88
2023-05-01T11:09:06.109Z,331.88
2023-05-01T11:10:06.084Z,331.88
2023-05-01T11:11:06.057Z,326.25
2023-05-01T11:12:06.040Z,315.00
2023-05-01T11:13:06.014Z,303.75
2023-05-01T11:14:05.990Z,292.50
2023-05-01T11:15:05.992Z,275.63
2023-05-01T11:16:05.968Z,258.75
2023-05-01T11:17:05.914Z,247.50
2023-05-01T11:18:06.184Z,230.63
2023-05-01T11:19:05.890Z,236.25
2023-05-01T11:20:05.846Z,253.13
2023-05-01T11:21:05.868Z,270.00
2023-05-01T11:22:05.794Z,281.25
2023-05-01T11:23:05.863Z,286.88
2023-05-01T11:24:05.746Z,286.88
2023-05-01T11:25:05.718Z,298.13
2023-05-01T11:26:05.702Z,298.13
2023-05-01T11:27:05.694Z,298.13
2023-05-01T11:28:05.654Z,303.75
2023-05-01T11:29:05.648Z,309.38
2023-05-01T11:30:05.600Z,309.38
2023-05-01T11:31:05.585Z,309.38
2023-05-01T11:32:05.580Z,309.38
2023-05-01T11:33:06.259Z,315.00
2023-05-01T11:34:05.506Z,348.75
2023-05-01T11:35:05.478Z,388.13
2023-05-01T11:36:05.458Z,410.63
2023-05-01T11:37:05.444Z,416.25
2023-05-01T11:38:05.407Z,421.88
2023-05-01T11:39:05.397Z,427.50
2023-05-01T11:40:05.361Z,433.13
2023-05-01T11:41:05.339Z,433.13
2023-05-01T11:42:05.368Z,433.13
2023-05-01T11:43:05.292Z,433.13
2023-05-01T11:44:05.264Z,433.13
2023-05-01T11:45:05.299Z,433.13
2023-05-01T11:46:05.300Z,433.13
2023-05-01T11:47:05.189Z,438.75
2023-05-01T11:48:05.428Z,438.75
2023-05-01T11:49:05.145Z,444.38
2023-05-01T11:50:05.117Z,450.00
2023-05-01T11:51:05.091Z,461.25
2023-05-01T11:52:05.070Z,455.63
2023-05-01T11:53:05.051Z,455.63
2023-05-01T11:54:05.030Z,466.88
2023-05-01T11:55:05.055Z,472.50
2023-05-01T11:56:10.853Z,472.50
2023-05-01T11:57:04.955Z,466.88
2023-05-01T11:58:04.954Z,489.38
2023-05-01T11:59:04.904Z,495.00
2023-05-01T12:00:04.880Z,495.00
2023-05-01T12:01:04.855Z,511.88
2023-05-01T12:02:04.874Z,534.38
2023-05-01T12:03:04.883Z,551.25
2023-05-01T12:04:04.936Z,556.88
2023-05-01T12:05:04.871Z,568.13
2023-05-01T12:06:04.793Z,568.13
2023-05-01T12:07:04.716Z,562.50
2023-05-01T12:08:04.697Z,551.25
2023-05-01T12:09:04.671Z,545.63
2023-05-01T12:10:04.658Z,534.38
2023-05-01T12:11:04.643Z,523.13
2023-05-01T12:12:04.599Z,511.88
2023-05-01T12:13:04.575Z,506.25
2023-05-01T12:14:04.551Z,511.88
2023-05-01T12:15:04.529Z,500.63
2023-05-01T12:16:04.523Z,500.63
2023-05-01T12:17:04.532Z,495.00
2023-05-01T12:18:04.518Z,495.00
2023-05-01T12:19:04.432Z,489.38
2023-05-01T12:20:04.415Z,489.38
2023-05-01T12:21:04.390Z,495.00
2023-05-01T12:22:04.369Z,506.25
2023-05-01T12:23:04.346Z,511.88
2023-05-01T12:24:04.320Z,545.63
2023-05-01T12:25:04.299Z,590.63
2023-05-01T12:26:04.274Z,607.50
2023-05-01T12:27:04.302Z,596.25
2023-05-01T12:28:04.227Z,601.88
2023-05-01T12:29:04.207Z,601.88
2023-05-01T12:30:04.184Z,596.25
2023-05-01T12:31:05.477Z,590.63
2023-05-01T12:32:04.275Z,573.75
2023-05-01T12:33:04.147Z,556.88
2023-05-01T12:34:04.088Z,556.88
2023-05-01T12:35:04.064Z,545.63
2023-05-01T12:36:04.041Z,540.00
2023-05-01T12:37:05.326Z,551.25
2023-05-01T12:38:03.998Z,545.63
2023-05-01T12:39:03.972Z,562.50
2023-05-01T12:40:03.956Z,590.63
2023-05-01T12:41:03.930Z,630.00
2023-05-01T12:42:03.906Z,663.75
2023-05-01T12:43:03.902Z,691.88
2023-05-01T12:44:03.867Z,714.38
2023-05-01T12:45:03.836Z,691.88
2023-05-01T12:46:03.859Z,624.38
2023-05-01T12:47:03.845Z,607.50
2023-05-01T12:48:03.799Z,511.88
2023-05-01T12:49:03.751Z,354.38